Time;durP1;ratioP1;P1;durP2;ratioP2;P2;SDS_P1;SDS_P2;PMS_P1;PMS_P2;Temp;Humidity;BMP_temperature;BMP_pressure;BME280_temperature;BME280_humidity;BME280_pressure;Samples;Min_cycle;Max_cycle;Signal;HPM_P1;HPM_P2
2022/03/07 00:01:55;;;;;;;2.78;2.30;;;15.00;37.50;14.20;102394.00;;;;5053565;28;20375;-71
2022/03/07 00:04:41;;;;;;;3.25;2.33;;;15.00;37.50;14.20;102398.00;;;;5056254;28;20501;-71
2022/03/07 00:07:27;;;;;;;3.88;2.65;;;15.10;37.50;14.20;102398.00;;;;5056538;28;20048;-71
2022/03/07 00:10:13;;;;;;;2.75;2.10;;;15.00;37.50;14.20;102391.00;;;;5057249;28;20406;-71
2022/03/07 00:12:59;;;;;;;3.30;2.40;;;15.10;37.60;14.20;102387.00;;;;5055493;28;20076;-71
2022/03/07 00:15:45;;;;;;;3.53;2.42;;;15.00;37.60;14.20;102387.00;;;;5045557;28;20115;-71
2022/03/07 00:18:31;;;;;;;3.22;2.20;;;15.00;37.50;14.10;102387.00;;;;5063200;28;20037;-71
2022/03/07 00:21:18;;;;;;;3.63;2.20;;;15.00;37.60;14.10;102389.00;;;;5053592;28;20478;-71
2022/03/07 00:24:06;;;;;;;1.83;1.70;;;15.00;37.60;14.10;102384.00;;;;5055183;28;20072;-71
2022/03/07 00:26:52;;;;;;;3.15;2.25;;;15.00;37.60;14.10;102389.00;;;;5054904;28;20048;-71
2022/03/07 00:29:38;;;;;;;3.85;2.33;;;15.00;37.60;14.10;102390.00;;;;5054287;28;20044;-71
2022/03/07 00:32:24;;;;;;;3.45;2.28;;;14.90;37.60;14.10;102378.00;;;;5042127;28;20048;-71
2022/03/07 00:35:10;;;;;;;3.40;2.05;;;15.00;37.60;14.10;102382.00;;;;5057355;28;20037;-71
2022/03/07 00:37:56;;;;;;;2.75;2.50;;;15.00;37.60;14.10;102377.00;;;;5046695;28;20371;-71
2022/03/07 00:40:42;;;;;;;3.40;2.08;;;14.90;37.60;14.10;102385.00;;;;5056263;28;20036;-71
2022/03/07 00:43:28;;;;;;;4.05;2.40;;;15.00;37.60;14.10;102385.00;;;;5054357;28;20049;-71
2022/03/07 00:46:15;;;;;;;2.88;2.22;;;15.00;37.60;14.10;102387.00;;;;5039468;28;20041;-71
2022/03/07 00:49:01;;;;;;;3.78;2.40;;;14.90;37.60;14.10;102388.00;;;;5041578;28;20197;-71
2022/03/07 00:51:47;;;;;;;2.85;2.42;;;14.90;37.60;14.10;102392.00;;;;5056945;28;20044;-71
2022/03/07 00:54:33;;;;;;;3.95;2.38;;;14.90;37.60;14.10;102378.00;;;;5056454;28;20045;-71
2022/03/07 00:57:19;;;;;;;3.28;2.40;;;14.90;37.60;14.00;102386.00;;;;5060043;28;20047;-71
2022/03/07 01:00:06;;;;;;;3.45;2.33;;;14.90;37.60;14.00;102391.00;;;;5054234;28;20098;-71
2022/03/07 01:02:52;;;;;;;2.90;2.22;;;14.90;37.60;14.00;102382.00;;;;5053722;28;20049;-71
2022/03/07 01:05:39;;;;;;;3.67;2.35;;;14.80;37.60;14.00;102397.00;;;;5058853;28;20044;-71
2022/03/07 01:08:26;;;;;;;2.83;2.38;;;14.80;37.60;14.00;102389.00;;;;5052519;28;20037;-71
2022/03/07 01:11:12;;;;;;;3.10;2.28;;;14.90;37.60;14.00;102395.00;;;;5060061;28;20040;-71
2022/03/07 01:13:58;;;;;;;4.10;2.40;;;14.80;37.60;14.00;102392.00;;;;5052166;28;20033;-71
2022/03/07 01:16:44;;;;;;;5.13;2.55;;;14.90;37.70;14.00;102398.00;;;;5055876;28;20032;-71
2022/03/07 01:19:30;;;;;;;3.60;2.05;;;14.80;37.60;14.00;102403.00;;;;5042742;28;20041;-71
2022/03/07 01:22:16;;;;;;;3.03;2.30;;;14.90;37.70;14.00;102397.00;;;;5054061;28;20032;-71
2022/03/07 01:25:05;;;;;;;3.33;2.53;;;14.80;37.60;14.00;102407.00;;;;5059250;28;20049;-71
2022/03/07 01:27:51;;;;;;;4.05;2.22;;;14.80;37.60;14.00;102403.00;;;;5056780;28;20074;-71
2022/03/07 01:30:37;;;;;;;2.90;2.25;;;14.80;37.60;14.00;102408.00;;;;5062516;28;20037;-71
2022/03/07 01:33:24;;;;;;;3.83;2.47;;;14.80;37.60;14.00;102412.00;;;;5054868;28;20387;-71
2022/03/07 01:36:10;;;;;;;2.95;2.20;;;14.80;37.60;14.00;102411.00;;;;5033731;28;20044;-71
2022/03/07 01:38:56;;;;;;;2.40;2.08;;;14.80;37.60;14.00;102397.00;;;;5061074;28;20383;-71
2022/03/07 01:41:43;;;;;;;3.60;2.13;;;14.80;37.60;13.90;102408.00;;;;5052203;28;20040;-71
2022/03/07 01:44:29;;;;;;;4.07;2.35;;;14.80;37.60;13.90;102402.00;;;;5060298;28;20058;-71
2022/03/07 01:47:15;;;;;;;3.03;2.20;;;14.80;37.70;13.90;102400.00;;;;5059811;28;20502;-71
2022/03/07 01:50:03;;;;;;;2.15;1.95;;;14.80;37.60;13.90;102401.00;;;;5055518;28;20037;-71
2022/03/07 01:52:51;;;;;;;2.58;2.13;;;14.80;37.70;13.90;102403.00;;;;5056608;28;20067;-71
2022/03/07 01:55:37;;;;;;;6.38;2.13;;;14.80;37.70;13.90;102398.00;;;;5038672;28;20101;-71
2022/03/07 01:58:23;;;;;;;2.60;1.95;;;14.80;37.70;13.90;102400.00;;;;5055412;28;20045;-71
2022/03/07 02:01:09;;;;;;;3.60;2.15;;;14.80;37.70;13.90;102387.00;;;;5037992;28;20486;-71
2022/03/07 02:03:55;;;;;;;3.08;2.10;;;14.80;37.70;13.90;102402.00;;;;5039911;28;20293;-71
2022/03/07 02:06:41;;;;;;;3.72;2.22;;;14.80;37.70;13.90;102403.00;;;;5058486;28;20044;-71
2022/03/07 02:09:27;;;;;;;3.20;1.95;;;14.80;37.70;13.90;102390.00;;;;5057684;28;20044;-72
2022/03/07 02:12:14;;;;;;;2.42;2.13;;;14.80;37.70;13.90;102389.00;;;;5056530;28;20041;-71
2022/03/07 02:15:00;;;;;;;3.63;2.08;;;14.80;37.70;13.90;102387.00;;;;5051471;28;20445;-71
2022/03/07 02:17:46;;;;;;;3.13;2.33;;;14.80;37.70;14.00;102385.00;;;;5052786;28;20056;-71
2022/03/07 02:20:32;;;;;;;3.75;2.08;;;14.80;37.70;13.90;102378.00;;;;5057650;28;20565;-71
2022/03/07 02:23:18;;;;;;;3.30;2.00;;;14.80;37.70;13.90;102378.00;;;;5054359;28;20052;-71
2022/03/07 02:26:12;;;;;;;3.15;2.20;;;14.80;37.60;13.90;102381.00;;;;5052234;28;20041;-71
2022/03/07 02:28:58;;;;;;;4.07;2.40;;;14.80;37.70;13.90;102377.00;;;;5031483;28;20032;-71
2022/03/07 02:31:44;;;;;;;2.85;2.30;;;14.80;37.70;13.90;102368.00;;;;5055384;28;20459;-71
2022/03/07 02:34:30;;;;;;;3.80;2.40;;;14.80;37.70;13.90;102385.00;;;;5057207;28;20037;-72
2022/03/07 02:37:16;;;;;;;3.05;2.15;;;14.80;37.70;13.90;102376.00;;;;5053139;28;20041;-71
2022/03/07 02:40:03;;;;;;;4.05;2.95;;;14.80;37.70;13.90;102387.00;;;;5056595;28;20076;-72
2022/03/07 02:42:49;;;;;;;2.35;2.15;;;14.80;37.70;13.90;102373.00;;;;5054558;28;20131;-71
2022/03/07 02:45:35;;;;;;;2.40;1.95;;;14.80;37.70;13.90;102376.00;;;;5060943;28;20321;-72
2022/03/07 02:48:21;;;;;;;2.97;2.20;;;14.80;37.70;13.90;102375.00;;;;5053560;28;20040;-71
2022/03/07 02:51:07;;;;;;;2.65;2.25;;;14.80;37.80;13.90;102383.00;;;;5054660;28;20167;-71
2022/03/07 02:53:53;;;;;;;3.35;2.17;;;14.80;37.80;13.90;102370.00;;;;5040634;28;20037;-71
2022/03/07 02:56:39;;;;;;;3.42;2.05;;;14.80;37.80;13.90;102369.00;;;;5057187;28;20045;-71
2022/03/07 02:59:26;;;;;;;3.35;2.22;;;14.80;37.80;13.90;102372.00;;;;5058116;28;20122;-71
2022/03/07 03:02:12;;;;;;;2.88;2.17;;;14.80;37.80;13.90;102369.00;;;;5052557;28;20049;-71
2022/03/07 03:04:58;;;;;;;2.38;2.10;;;14.80;37.90;13.90;102362.00;;;;5053194;28;20044;-72
2022/03/07 03:07:47;;;;;;;3.33;2.53;;;14.80;37.80;13.90;102361.00;;;;5057949;28;20124;-71
2022/03/07 03:10:33;;;;;;;2.80;2.10;;;14.80;37.90;13.90;102361.00;;;;5054294;28;20471;-71
2022/03/07 03:13:20;;;;;;;4.53;2.53;;;14.80;37.90;13.90;102363.00;;;;5038058;28;20044;-71
2022/03/07 03:16:06;;;;;;;4.15;2.45;;;14.80;37.90;13.90;102362.00;;;;5055188;28;20041;-71
2022/03/07 03:18:52;;;;;;;4.05;2.35;;;14.80;37.90;13.90;102358.00;;;;5058111;28;20040;-71
2022/03/07 03:21:38;;;;;;;3.20;2.58;;;14.80;37.90;13.90;102369.00;;;;5056760;28;20460;-71
2022/03/07 03:24:24;;;;;;;2.78;2.08;;;14.80;37.90;13.90;102364.00;;;;5047478;28;20044;-71
2022/03/07 03:27:10;;;;;;;4.65;2.95;;;14.80;38.00;13.90;102367.00;;;;5042479;28;20041;-71
2022/03/07 03:29:56;;;;;;;3.05;2.25;;;14.80;38.00;13.90;102368.00;;;;5046920;28;20041;-71
2022/03/07 03:32:42;;;;;;;2.80;2.47;;;14.80;38.00;13.90;102365.00;;;;5057472;28;20398;-71
2022/03/07 03:35:28;;;;;;;3.35;2.33;;;14.80;38.00;13.90;102369.00;;;;5041172;28;20040;-71
2022/03/07 03:38:14;;;;;;;2.92;2.50;;;14.80;38.00;13.90;102372.00;;;;5057592;28;20136;-72
2022/03/07 03:41:00;;;;;;;3.17;2.47;;;14.80;38.10;13.90;102376.00;;;;5061704;28;20053;-71
2022/03/07 03:43:47;;;;;;;3.38;2.55;;;14.80;38.10;13.90;102375.00;;;;5046453;28;20040;-71
2022/03/07 03:46:33;;;;;;;3.10;2.08;;;14.80;38.10;13.90;102365.00;;;;5053812;28;20103;-71
2022/03/07 03:49:19;;;;;;;2.55;2.05;;;14.80;38.10;13.90;102366.00;;;;5044016;28;20040;-71
2022/03/07 03:52:05;;;;;;;4.07;2.42;;;14.80;38.10;13.90;102371.00;;;;5059088;28;20037;-71
2022/03/07 03:54:51;;;;;;;3.25;2.35;;;14.80;38.10;13.90;102370.00;;;;5055359;28;20037;-71
2022/03/07 03:57:40;;;;;;;5.50;2.75;;;14.80;38.20;13.90;102371.00;;;;5060204;28;20047;-71
2022/03/07 04:00:28;;;;;;;3.22;2.53;;;14.80;38.20;13.90;102370.00;;;;5043350;28;20048;-71
2022/03/07 04:03:14;;;;;;;5.28;2.60;;;14.80;38.20;13.90;102359.00;;;;5055744;28;20120;-71
2022/03/07 04:06:00;;;;;;;2.75;1.83;;;14.80;38.20;13.90;102367.00;;;;5060133;28;20091;-71
2022/03/07 04:08:54;;;;;;;3.58;2.60;;;14.80;38.20;13.90;102357.00;;;;5056026;28;20442;-71
2022/03/07 04:11:40;;;;;;;3.67;2.65;;;14.80;38.20;13.90;102359.00;;;;5042347;28;20040;-71
2022/03/07 04:14:26;;;;;;;4.35;2.60;;;14.80;38.20;13.90;102359.00;;;;5044064;28;20036;-71
2022/03/07 04:17:12;;;;;;;3.90;2.72;;;14.80;38.20;13.90;102350.00;;;;5044154;28;20505;-71
2022/03/07 04:19:58;;;;;;;3.78;2.63;;;14.80;38.20;13.90;102352.00;;;;5060017;28;20040;-71
2022/03/07 04:22:44;;;;;;;3.03;2.45;;;14.80;38.30;13.90;102354.00;;;;5054915;28;20395;-71
2022/03/07 04:25:30;;;;;;;3.63;2.53;;;14.80;38.30;13.90;102366.00;;;;5062427;28;20048;-71
2022/03/07 04:28:16;;;;;;;5.68;2.28;;;14.90;38.40;13.90;102352.00;;;;5061771;28;20102;-71
2022/03/07 04:31:02;;;;;;;3.67;2.75;;;14.80;38.30;13.90;102357.00;;;;5056300;28;20044;-71
2022/03/07 04:33:49;;;;;;;3.00;2.15;;;14.80;38.30;13.90;102348.00;;;;5061792;28;20231;-71
2022/03/07 04:36:36;;;;;;;2.50;2.25;;;14.80;38.30;13.90;102346.00;;;;5057972;28;20044;-71
2022/03/07 04:39:23;;;;;;;3.55;2.50;;;14.90;38.40;13.90;102343.00;;;;5058545;28;20044;-71
2022/03/07 04:42:09;;;;;;;3.28;2.55;;;14.80;38.30;13.90;102344.00;;;;5064417;28;20048;-71
2022/03/07 04:44:56;;;;;;;3.17;2.53;;;14.90;38.40;13.90;102339.00;;;;5061133;28;20052;-71
2022/03/07 04:47:42;;;;;;;3.78;2.42;;;14.80;38.40;13.90;102336.00;;;;5061802;28;20045;-72
2022/03/07 04:50:28;;;;;;;3.60;2.60;;;14.80;38.30;13.90;102342.00;;;;5041779;28;20513;-72
2022/03/07 04:53:14;;;;;;;3.42;2.58;;;14.80;38.40;13.90;102334.00;;;;5059984;28;20401;-71
2022/03/07 04:56:00;;;;;;;3.25;2.45;;;14.80;38.40;13.90;102359.00;;;;5053593;28;20041;-72
2022/03/07 04:58:46;;;;;;;3.25;2.60;;;14.80;38.60;13.90;102349.00;;;;5057910;28;20112;-71
2022/03/07 05:01:32;;;;;;;5.53;3.03;;;14.80;38.40;13.90;102360.00;;;;5058890;28;20051;-71
2022/03/07 05:04:19;;;;;;;4.22;2.97;;;14.80;38.40;13.90;102359.00;;;;5053365;28;20083;-71
2022/03/07 05:07:05;;;;;;;3.22;2.50;;;14.80;38.50;13.90;102361.00;;;;5045227;28;20128;-71
2022/03/07 05:09:51;;;;;;;3.50;2.38;;;14.70;38.40;13.90;102369.00;;;;5062282;28;20553;-71
2022/03/07 05:12:37;;;;;;;4.38;2.80;;;14.80;38.50;13.90;102366.00;;;;5056374;28;20033;-71
2022/03/07 05:15:23;;;;;;;4.03;2.90;;;14.80;38.50;13.90;102373.00;;;;5041404;28;20033;-71
2022/03/07 05:18:09;;;;;;;4.40;2.88;;;14.80;38.50;13.90;102375.00;;;;5042062;28;20423;-71
2022/03/07 05:20:55;;;;;;;3.70;2.47;;;14.80;38.50;13.90;102381.00;;;;5061322;28;20040;-71
2022/03/07 05:23:41;;;;;;;3.00;2.70;;;14.80;38.50;13.90;102375.00;;;;5058007;28;20047;-71
2022/03/07 05:26:27;;;;;;;2.92;2.50;;;14.80;38.60;13.90;102388.00;;;;5062354;28;20410;-71
2022/03/07 05:29:14;;;;;;;3.25;2.28;;;14.80;38.60;13.90;102387.00;;;;5054592;28;20049;-71
2022/03/07 05:32:00;;;;;;;3.80;2.70;;;14.80;38.60;13.90;102391.00;;;;5053384;28;20098;-71
2022/03/07 05:34:46;;;;;;;3.95;2.60;;;14.80;38.60;13.90;102391.00;;;;5041259;28;20033;-71
2022/03/07 05:37:32;;;;;;;3.97;2.72;;;14.80;38.60;13.90;102394.00;;;;5063878;28;20375;-71
2022/03/07 05:40:18;;;;;;;3.38;2.38;;;14.80;38.60;13.90;102392.00;;;;5055906;28;20052;-71
2022/03/07 05:43:04;;;;;;;3.95;2.83;;;14.80;38.60;13.90;102391.00;;;;5041324;28;20124;-71
2022/03/07 05:45:50;;;;;;;5.13;2.78;;;14.70;38.60;13.90;102389.00;;;;5054775;28;20116;-71
2022/03/07 05:48:36;;;;;;;4.10;2.90;;;14.80;38.70;13.90;102386.00;;;;5061734;28;20044;-71
2022/03/07 05:51:24;;;;;;;6.03;3.55;;;14.80;38.70;13.90;102393.00;;;;5060064;28;20037;-71
2022/03/07 05:54:10;;;;;;;3.15;2.60;;;14.80;38.70;13.80;102386.00;;;;5054178;28;20033;-71
2022/03/07 05:56:56;;;;;;;2.67;2.42;;;14.80;38.60;13.90;102397.00;;;;5060715;28;20049;-71
2022/03/07 05:59:43;;;;;;;4.47;2.63;;;14.80;38.60;13.90;102402.00;;;;5058794;28;20040;-71
2022/03/07 06:02:29;;;;;;;4.40;2.75;;;14.80;38.70;13.80;102395.00;;;;5041427;28;20041;-71
2022/03/07 06:05:15;;;;;;;5.75;2.70;;;14.80;38.70;13.80;102396.00;;;;5050156;28;20383;-71
2022/03/07 06:08:02;;;;;;;4.45;3.28;;;14.80;38.70;13.90;102401.00;;;;5057412;28;20045;-71
2022/03/07 06:10:49;;;;;;;3.40;3.08;;;14.80;38.70;13.90;102405.00;;;;5056336;28;20573;-71
2022/03/07 06:13:35;;;;;;;3.97;3.58;;;14.80;38.70;13.90;102402.00;;;;5056626;28;20064;-71
2022/03/07 06:16:21;;;;;;;5.55;3.40;;;14.80;38.70;13.90;102403.00;;;;5041138;28;20517;-71
2022/03/07 06:19:07;;;;;;;5.75;3.97;;;14.80;38.70;13.80;102409.00;;;;5056229;28;20064;-71
2022/03/07 06:21:53;;;;;;;4.05;3.30;;;14.80;38.70;13.80;102411.00;;;;5039366;28;20091;-71
2022/03/07 06:24:39;;;;;;;4.22;3.42;;;14.80;38.70;13.80;102409.00;;;;5057103;28;20048;-71
2022/03/07 06:27:25;;;;;;;4.80;3.50;;;14.80;38.70;13.80;102400.00;;;;5055530;28;20048;-71
2022/03/07 06:30:11;;;;;;;5.75;3.65;;;14.70;38.70;13.80;102415.00;;;;5057683;28;20052;-72
2022/03/07 06:32:58;;;;;;;6.40;3.85;;;14.80;38.70;13.80;102419.00;;;;5049075;28;20044;-71
2022/03/07 06:35:44;;;;;;;3.80;3.30;;;14.80;38.80;13.80;102411.00;;;;5045325;28;20040;-71
2022/03/07 06:38:30;;;;;;;4.97;3.47;;;14.80;38.80;13.80;102404.00;;;;5049902;28;20098;-72
2022/03/07 06:41:16;;;;;;;4.25;3.28;;;14.80;38.80;13.80;102416.00;;;;5051650;28;20052;-71
2022/03/07 06:44:02;;;;;;;3.65;3.35;;;14.70;38.70;13.80;102405.00;;;;5051595;28;20048;-71
2022/03/07 06:46:48;;;;;;;5.10;3.50;;;14.80;38.80;13.80;102411.00;;;;5042026;28;20109;-71
2022/03/07 06:49:34;;;;;;;3.67;3.33;;;14.80;38.80;13.80;102415.00;;;;5055347;28;20047;-71
2022/03/07 06:52:20;;;;;;;3.40;3.10;;;14.80;38.80;13.80;102415.00;;;;5043330;28;20040;-71
2022/03/07 06:55:07;;;;;;;6.32;3.47;;;14.80;38.80;13.80;102414.00;;;;5051578;28;20497;-71
2022/03/07 06:57:53;;;;;;;4.78;3.78;;;14.80;38.80;13.80;102418.00;;;;5057635;28;20047;-71
2022/03/07 07:00:39;;;;;;;5.15;3.65;;;14.80;38.80;13.80;102425.00;;;;5053458;28;20044;-71
2022/03/07 07:03:25;;;;;;;4.97;3.63;;;14.80;38.80;13.80;102409.00;;;;5055307;28;20050;-71
2022/03/07 07:06:11;;;;;;;5.35;4.00;;;14.80;38.80;13.80;102405.00;;;;5055743;28;20048;-71
2022/03/07 07:08:58;;;;;;;3.95;3.33;;;14.80;38.90;13.80;102407.00;;;;5046990;28;20389;-71
2022/03/07 07:11:44;;;;;;;4.07;3.22;;;14.80;38.90;13.80;102410.00;;;;5060345;28;20040;-71
2022/03/07 07:14:30;;;;;;;5.53;3.25;;;14.80;38.90;13.80;102405.00;;;;5055259;28;20033;-71
2022/03/07 07:17:16;;;;;;;4.00;3.40;;;14.80;38.90;13.80;102403.00;;;;5058853;28;20113;-71
2022/03/07 07:20:04;;;;;;;4.40;3.05;;;14.80;38.90;13.90;102406.00;;;;5046980;28;20171;-71
2022/03/07 07:22:50;;;;;;;5.80;3.20;;;14.80;38.90;13.90;102404.00;;;;5042583;28;20040;-71
2022/03/07 07:25:36;;;;;;;4.22;3.05;;;14.80;38.90;13.90;102410.00;;;;5060401;28;20045;-71
2022/03/07 07:28:22;;;;;;;6.50;3.10;;;14.80;39.00;13.90;102419.00;;;;5040246;28;20068;-71
2022/03/07 07:31:08;;;;;;;6.00;3.75;;;14.80;38.90;13.90;102427.00;;;;5057143;28;20046;-71
2022/03/07 07:33:54;;;;;;;3.85;3.20;;;14.80;39.00;13.90;102422.00;;;;5058925;28;20389;-71
2022/03/07 07:36:41;;;;;;;3.97;3.17;;;14.80;39.00;13.90;102428.00;;;;5054964;28;20044;-71
2022/03/07 07:39:27;;;;;;;4.90;3.78;;;14.80;39.00;13.90;102435.00;;;;5056992;28;20053;-72
2022/03/07 07:42:13;;;;;;;4.57;3.40;;;14.80;39.00;13.90;102430.00;;;;5051917;28;20033;-71
2022/03/07 07:44:59;;;;;;;4.65;3.45;;;14.80;39.00;13.90;102440.00;;;;5060437;28;20147;-72
2022/03/07 07:47:45;;;;;;;5.20;3.25;;;14.80;39.00;13.90;102438.00;;;;5053694;28;20044;-71
2022/03/07 07:50:31;;;;;;;4.15;3.10;;;14.80;39.10;13.90;102445.00;;;;5058642;28;20049;-71
2022/03/07 07:53:17;;;;;;;4.53;3.35;;;14.80;39.10;13.90;102444.00;;;;5050994;28;20474;-71
2022/03/07 07:56:04;;;;;;;4.70;3.42;;;14.80;39.10;13.90;102447.00;;;;5050070;28;20037;-71
2022/03/07 07:58:50;;;;;;;4.55;3.63;;;14.80;39.20;13.90;102444.00;;;;5040403;28;20448;-71
2022/03/07 08:01:36;;;;;;;7.03;3.58;;;14.80;39.20;13.90;102448.00;;;;5048197;28;20044;-71
2022/03/07 08:04:22;;;;;;;4.38;3.28;;;14.80;39.20;13.90;102453.00;;;;5055669;28;20068;-71
2022/03/07 08:07:08;;;;;;;5.75;3.80;;;14.80;39.20;13.90;102465.00;;;;5054426;28;20483;-71
2022/03/07 08:09:54;;;;;;;5.40;3.20;;;14.80;39.20;13.90;102457.00;;;;5035733;28;20036;-71
2022/03/07 08:12:40;;;;;;;5.43;3.17;;;14.80;39.30;13.90;102461.00;;;;5051278;28;20489;-71
2022/03/07 08:15:29;;;;;;;4.45;3.25;;;14.90;39.30;13.90;102456.00;;;;5059509;28;20068;-71
2022/03/07 08:18:16;;;;;;;5.32;3.20;;;14.80;39.30;13.90;102459.00;;;;5055094;28;20048;-71
2022/03/07 08:21:02;;;;;;;4.70;3.08;;;14.80;39.30;13.90;102455.00;;;;5042890;28;20142;-71
2022/03/07 08:23:49;;;;;;;5.28;3.25;;;14.80;39.30;13.90;102444.00;;;;5055804;28;20121;-71
2022/03/07 08:26:35;;;;;;;4.45;3.08;;;14.90;39.40;13.90;102454.00;;;;5055909;28;20044;-71
2022/03/07 08:29:21;;;;;;;3.75;2.90;;;14.90;39.40;13.90;102452.00;;;;5044095;28;20043;-71
2022/03/07 08:32:07;;;;;;;5.32;3.10;;;14.90;39.40;14.00;102458.00;;;;5055110;28;20045;-71
2022/03/07 08:34:55;;;;;;;4.53;2.80;;;14.90;39.40;14.00;102465.00;;;;5055780;28;20082;-72
2022/03/07 08:37:42;;;;;;;3.40;2.60;;;14.90;39.40;14.00;102458.00;;;;5044848;28;20036;-72
2022/03/07 08:40:28;;;;;;;5.78;3.05;;;15.00;39.50;14.00;102467.00;;;;5061539;28;20052;-72
2022/03/07 08:43:14;;;;;;;4.40;2.45;;;15.00;39.50;14.00;102458.00;;;;5043035;28;20463;-71
2022/03/07 08:46:01;;;;;;;4.25;2.50;;;15.00;39.40;14.00;102455.00;;;;5055463;28;20155;-71
2022/03/07 08:48:47;;;;;;;4.00;2.55;;;15.00;39.50;14.00;102454.00;;;;5041992;28;20123;-72
2022/03/07 08:51:33;;;;;;;3.60;2.47;;;15.00;39.60;14.00;102451.00;;;;5058211;28;20048;-71
2022/03/07 08:54:19;;;;;;;3.50;2.00;;;15.00;39.60;14.10;102446.00;;;;5056781;28;20136;-72
2022/03/07 08:57:05;;;;;;;2.50;2.10;;;15.00;39.60;14.10;102453.00;;;;5059258;28;20056;-72
2022/03/07 08:59:51;;;;;;;4.43;2.67;;;15.00;39.60;14.10;102442.00;;;;5055849;28;20133;-71
2022/03/07 09:02:37;;;;;;;2.58;2.13;;;15.00;39.60;14.10;102452.00;;;;5045495;28;20049;-71
2022/03/07 09:05:23;;;;;;;5.63;2.15;;;15.00;39.60;14.10;102448.00;;;;5061884;28;20529;-71
2022/03/07 09:08:09;;;;;;;4.50;2.53;;;15.00;39.60;14.10;102459.00;;;;5056064;28;20049;-71
2022/03/07 09:10:55;;;;;;;2.03;1.83;;;15.10;39.70;14.10;102461.00;;;;5060951;28;20122;-71
2022/03/07 09:13:41;;;;;;;5.53;2.05;;;15.10;39.70;14.10;102461.00;;;;5057897;28;20048;-71
2022/03/07 09:16:27;;;;;;;3.47;2.40;;;15.10;39.60;14.10;102447.00;;;;5061545;28;20033;-72
2022/03/07 09:19:14;;;;;;;4.72;2.15;;;15.10;39.60;14.10;102452.00;;;;5058060;28;20070;-71
2022/03/07 09:22:00;;;;;;;2.33;1.90;;;15.10;39.60;14.10;102460.00;;;;5044810;28;20045;-71
2022/03/07 09:24:46;;;;;;;4.85;2.17;;;15.10;39.60;14.10;102446.00;;;;5057570;28;20138;-72
2022/03/07 09:27:32;;;;;;;4.53;2.25;;;15.10;39.70;14.10;102454.00;;;;5061876;28;20048;-71
2022/03/07 09:30:18;;;;;;;2.60;2.00;;;15.10;39.60;14.10;102446.00;;;;5050303;28;20064;-72
2022/03/07 09:33:04;;;;;;;2.65;1.85;;;15.10;39.60;14.10;102453.00;;;;5057023;28;20040;-71
2022/03/07 09:35:51;;;;;;;3.00;1.77;;;15.20;39.80;14.20;102451.00;;;;5054407;28;20059;-71
2022/03/07 09:38:38;;;;;;;3.95;1.63;;;15.20;40.20;14.20;102452.00;;;;5044925;28;20211;-71
2022/03/07 09:41:27;;;;;;;5.95;1.92;;;15.10;40.30;14.20;102459.00;;;;5056576;28;20264;-71
2022/03/07 09:44:13;;;;;;;3.65;1.83;;;15.20;40.50;14.20;102451.00;;;;5061028;28;20102;-71
2022/03/07 09:47:00;;;;;;;2.78;1.98;;;15.20;40.50;14.30;102446.00;;;;5058722;28;20047;-71
2022/03/07 09:49:46;;;;;;;2.53;1.98;;;15.30;40.60;14.30;102446.00;;;;5056140;28;20062;-71
2022/03/07 09:52:32;;;;;;;2.88;1.83;;;15.30;40.60;14.40;102446.00;;;;5040673;28;20069;-71
2022/03/07 09:55:18;;;;;;;7.80;2.00;;;15.30;40.60;14.40;102448.00;;;;5055160;28;20032;-71
2022/03/07 09:58:06;;;;;;;3.45;1.90;;;15.40;40.40;14.40;102444.00;;;;5059943;28;20037;-71
2022/03/07 10:01:07;;;;;;;3.80;2.20;;;15.40;40.30;14.40;102440.00;;;;5043878;28;20067;-71
2022/03/07 10:04:07;;;;;;;3.58;1.88;;;15.40;40.30;14.50;102440.00;;;;5045647;28;20944;-71
2022/03/07 10:06:53;;;;;;;5.35;2.88;;;15.50;40.40;14.50;102447.00;;;;5046476;28;20117;-71
2022/03/07 10:09:40;;;;;;;6.20;2.30;;;15.50;40.40;14.50;102430.00;;;;5055408;28;20394;-72
2022/03/07 10:12:29;;;;;;;6.75;3.17;;;15.50;40.40;14.50;102443.00;;;;5042519;28;20044;-71
2022/03/07 10:15:18;;;;;;;7.22;4.55;;;15.50;39.90;14.40;102435.00;;;;5055643;28;20064;-71
2022/03/07 10:18:05;;;;;;;7.95;4.50;;;15.60;39.30;14.30;102442.00;;;;5038104;28;20414;-71
2022/03/07 10:20:53;;;;;;;6.22;4.78;;;15.50;39.10;14.10;102444.00;;;;5053541;28;20143;-71
2022/03/07 10:23:39;;;;;;;6.10;4.80;;;15.50;38.90;14.00;102438.00;;;;5038349;28;20048;-71
2022/03/07 10:26:33;;;;;;;5.22;3.90;;;15.50;38.70;13.90;102427.00;;;;5028328;28;20508;-71
2022/03/07 10:29:19;;;;;;;7.45;3.10;;;15.40;39.50;13.90;102430.00;;;;5041472;28;20502;-71
2022/03/07 10:32:05;;;;;;;4.82;3.10;;;15.30;39.80;13.80;102424.00;;;;5049565;28;20044;-71
2022/03/07 10:34:51;;;;;;;4.80;3.10;;;15.20;39.90;13.80;102416.00;;;;5028983;28;20192;-71
2022/03/07 10:37:38;;;;;;;5.93;3.38;;;15.10;40.00;13.80;102420.00;;;;5051140;28;20044;-71
2022/03/07 10:40:24;;;;;;;7.00;3.67;;;15.10;40.10;13.80;102420.00;;;;5055016;28;20048;-71
2022/03/07 10:43:12;;;;;;;4.82;3.15;;;15.00;40.20;13.90;102414.00;;;;5035953;28;20048;-71
2022/03/07 10:46:00;;;;;;;6.43;3.22;;;15.00;40.30;13.90;102403.00;;;;5057501;28;20583;-71
2022/03/07 10:48:48;;;;;;;4.55;3.25;;;15.00;40.40;13.90;102400.00;;;;5039252;28;20051;-71
2022/03/07 10:51:34;;;;;;;5.28;3.08;;;15.00;40.40;13.90;102403.00;;;;5038478;28;20048;-71
2022/03/07 10:54:21;;;;;;;7.97;3.20;;;14.90;40.20;13.90;102402.00;;;;5052841;28;20095;-71
2022/03/07 10:57:07;;;;;;;5.30;3.40;;;15.00;40.40;13.90;102398.00;;;;5054200;28;20162;-71
2022/03/07 10:59:53;;;;;;;7.10;4.75;;;15.10;40.50;13.90;102388.00;;;;5040279;28;20122;-70
2022/03/07 11:02:47;;;;;;;8.88;5.90;;;15.10;40.60;14.00;102385.00;;;;5056542;28;20032;-72
2022/03/07 11:05:33;;;;;;;9.40;5.78;;;15.10;40.60;14.00;102383.00;;;;5055505;28;20072;-71
2022/03/07 11:08:20;;;;;;;8.13;5.72;;;15.10;41.20;14.00;102372.00;;;;5040688;28;20668;-71
2022/03/07 11:11:10;;;;;;;8.98;5.43;;;15.20;40.50;14.00;102385.00;;;;5036403;28;20047;-71
2022/03/07 11:13:56;;;;;;;8.45;5.38;;;15.20;40.30;14.00;102378.00;;;;5053916;28;20037;-71
2022/03/07 11:16:42;;;;;;;7.43;5.45;;;15.20;40.20;14.10;102386.00;;;;5033635;28;20037;-71
2022/03/07 11:19:28;;;;;;;7.00;4.32;;;15.20;40.30;14.10;102384.00;;;;5035168;28;20071;-70
2022/03/07 11:22:15;;;;;;;8.52;4.32;;;15.20;40.20;14.10;102382.00;;;;5031253;28;20060;-71
2022/03/07 11:25:04;;;;;;;6.07;3.60;;;15.20;40.20;14.10;102377.00;;;;5038514;28;20512;-71
2022/03/07 11:27:50;;;;;;;5.00;3.17;;;15.20;40.10;14.10;102381.00;;;;5054024;28;20056;-71
2022/03/07 11:30:42;;;;;;;7.05;3.15;;;15.30;40.00;14.10;102368.00;;;;5041727;28;20480;-71
2022/03/07 11:33:33;;;;;;;4.55;2.97;;;15.30;40.00;14.20;102369.00;;;;5035067;28;20292;-71
2022/03/07 11:36:21;;;;;;;5.72;3.22;;;15.30;40.00;14.20;102368.00;;;;5052199;28;20051;-71
2022/03/07 11:39:07;;;;;;;;;;;15.30;39.90;14.20;102359.00;;;;5050353;28;20072;-71
2022/03/07 11:41:53;;;;;;;3.13;2.83;;;15.30;39.80;14.10;102366.00;;;;5032959;28;19912;-70
2022/03/07 11:44:42;;;;;;;4.18;2.60;;;15.40;39.80;14.20;102369.00;;;;5039174;28;20049;-71
2022/03/07 11:47:38;;;;;;;5.63;3.25;;;15.40;39.80;14.20;102353.00;;;;5041534;28;20450;-71
2022/03/07 11:50:31;;;;;;;3.92;2.80;;;15.40;39.80;14.20;102348.00;;;;5042637;28;20119;-71
2022/03/07 11:53:19;;;;;;;3.20;2.60;;;15.20;39.70;14.20;102354.00;;;;5039050;28;20041;-71
2022/03/07 11:56:17;;;;;;;7.25;2.92;;;15.40;39.90;14.20;102336.00;;;;5057606;28;20180;-71
2022/03/07 11:59:05;;;;;;;3.47;2.78;;;15.40;39.90;14.20;102344.00;;;;5045373;28;20044;-71
2022/03/07 12:01:52;;;;;;;3.85;2.95;;;15.40;39.90;14.20;102346.00;;;;5041501;28;20039;-71
2022/03/07 12:04:45;;;;;;;4.07;3.10;;;15.40;39.90;14.20;102335.00;;;;5040044;28;20067;-71
2022/03/07 12:07:31;;;;;;;3.95;2.90;;;15.40;39.90;14.30;102332.00;;;;5055186;28;20066;-71
2022/03/07 12:10:17;;;;;;;4.88;3.22;;;15.40;39.90;14.30;102332.00;;;;5054980;28;20033;-71
2022/03/07 12:13:10;;;;;;;6.82;3.22;;;15.40;39.90;14.30;102328.00;;;;5054303;28;20041;-71